• Join FlightAware (Why Join?)
  • Login
  • US Flag 
06:14AM EDT


 

Airport Tracker/Info


-or-


 

Live Flight TrackerFlight Track Log ✈ N387DS ✈ 05-Jun-2013 ✈ KECP - KFFC

Flight Track Log - Related Links

Times and Time Zones

All times are in EDT time to prevent confusion due to time zone crossing. See the N387DS flight status page for this flight to view local times or setup timezone preferences in your user account.

Time Position Orientation Groundspeed Altitude Reporting Facility
EDT Latitude Longitude Course Direction KTS MPH feet Rate Location/Type
04:48PM 30.5465 -85.7063 20° North  Level FlightAware Approximate
04:49PM 30.5789 -85.6924 20° North  Level FlightAware Approximate
04:50PM 30.6115 -85.6790 18° North  Level FlightAware Approximate
04:51PM 30.6444 -85.6667 18° North  Level FlightAware Approximate
04:51PM 30.5103 -85.6486 19° North 105 121 5,500  Level Jacksonville Center
04:52PM 30.6773 -85.6544 18° North  Level FlightAware Approximate
04:52PM 30.5375 -85.6372 20° North 110 127 5,900  Level Jacksonville Center
04:53PM 30.7102 -85.6420 18° North  Level FlightAware Approximate
04:53PM 30.5692 -85.6236 20° North 113 130 6,200  Level Jacksonville Center
04:54PM 30.7431 -85.6295 19° North  Level FlightAware Approximate
04:54PM 30.5986 -85.6147 15° North 116 133 6,500  Level Jacksonville Center
04:55PM 30.7758 -85.6165 19° North  Level FlightAware Approximate
04:55PM 30.6303 -85.6036 17° North 115 132 6,800  Level Jacksonville Center
04:56PM 30.8085 -85.6036 19° North  Level FlightAware Approximate
04:56PM 30.6617 -85.5900 20° North 119 137 7,000  Level Jacksonville Center
04:57PM 30.6997 -85.5767 17° North 139 160 7,000  Level Jacksonville Center
04:58PM 30.7397 -85.5633 16° North 147 169 7,000  Level Jacksonville Center
04:59PM 30.7775 -85.5522 14° North 145 167 7,000  Level Jacksonville Center
05:00PM 30.8214 -85.5461 North 147 169 7,000  Level Jacksonville Center
05:01PM 30.8631 -85.5450 North 146 168 7,000  Level Jacksonville Center
05:02PM 30.8967 -85.5339 16° North 136 157 7,000  Level Jacksonville Center
05:03PM 30.9386 -85.5325 North 140 161 7,000  Level Jacksonville Center
05:04PM 30.9744 -85.5192 18° North 141 162 7,000  Level Jacksonville Center
05:05PM 31.0122 -85.5056 17° North 135 155 7,000  Level Jacksonville Center
05:06PM 31.0481 -85.4919 18° North 130 150 7,000  Level Jacksonville Center
05:07PM 31.0794 -85.4808 17° North 122 140 7,000  Level Jacksonville Center
05:08PM 31.1175 -85.4647 20° North 136 157 7,000  Level Jacksonville Center
05:09PM 31.1572 -85.4611 North 147 169 7,000  Level Jacksonville Center
05:10PM 31.1911 -85.4400 28° Northeast 138 159 7,000  Level Jacksonville Center
05:11PM 31.2269 -85.4217 24° Northeast 135 155 7,000  Level Jacksonville Center
05:12PM 31.2625 -85.4106 15° North 139 160 7,000  Level Jacksonville Center
05:13PM 31.3025 -85.3919 22° Northeast 140 161 7,000  Level Jacksonville Center
05:14PM 31.3406 -85.3783 17° North 138 159 7,000  Level Jacksonville Center
05:15PM 31.3761 -85.3647 18° North 138 159 7,000  Level Jacksonville Center
05:16PM 31.4142 -85.3511 17° North 138 159 7,000  Level Jacksonville Center
05:17PM 31.4478 -85.3350 22° Northeast 141 162 7,000  Level Jacksonville Center
05:18PM 31.4878 -85.3214 16° North 143 165 7,000  Level Jacksonville Center
05:19PM 31.5278 -85.3056 19° North 141 162 7,000  Level Jacksonville Center
05:20PM 31.5633 -85.2917 18° North 140 161 7,000  Level Jacksonville Center
05:21PM 31.6014 -85.2756 20° North 136 157 7,000  Level Jacksonville Center
05:22PM 31.6328 -85.2644 17° North 127 146 7,000  Level Jacksonville Center
05:23PM 31.6686 -85.2506 18° North 129 148 7,000 -300 Level Jacksonville Center
05:25PM 31.7333 -85.2167 24° Northeast 147 169 6,200 -480 Descending Atlanta TRACON
05:26PM 31.7667 -85.2167 360° North 130 150 5,800 -480 Descending Atlanta TRACON
05:27PM 31.8000 -85.2000 23° Northeast 143 165 5,300 -480 Descending Atlanta TRACON
05:28PM 31.8333 -85.1833 23° Northeast 143 165 5,000 -180 Descending Atlanta TRACON
05:29PM 31.8833 -85.1667 16° North 140 161 5,000  Level Atlanta TRACON
05:30PM 31.9167 -85.1500 23° Northeast 138 159 5,000  Level Atlanta TRACON
05:31PM 31.9500 -85.1333 23° Northeast 139 160 5,000  Level Atlanta TRACON
05:32PM 31.9833 -85.1167 23° Northeast 138 159 5,000  Level Atlanta TRACON
05:33PM 32.0167 -85.1167 360° North 133 153 5,000  Level Atlanta TRACON
05:34PM 32.0667 -85.1000 16° North 133 153 5,000  Level Atlanta TRACON
05:35PM 32.1000 -85.0833 23° Northeast 132 152 5,000  Level Atlanta TRACON
05:36PM 32.1333 -85.0833 360° North 130 150 5,000  Level Atlanta TRACON
05:37PM 32.1667 -85.0667 23° Northeast 127 146 5,000  Level Atlanta TRACON
05:38PM 32.2167 -85.0667 360° North 130 150 5,000  Level Atlanta TRACON
05:39PM 32.2500 -85.0667 360° North 126 145 5,000  Level Atlanta TRACON
05:40PM 32.2667 -85.0500 40° Northeast 134 154 5,000  Level Atlanta TRACON
05:41PM 32.3167 -85.0500 360° North 134 154 5,000  Level Atlanta TRACON
05:42PM 32.3500 -85.0333 23° Northeast 130 150 5,000  Level Atlanta TRACON
05:43PM 32.3833 -85.0167 23° Northeast 131 151 5,000  Level Atlanta TRACON
05:44PM 32.4167 -85.0167 360° North 136 157 5,000  Level Atlanta TRACON
05:45PM 32.4500 -85.0000 23° Northeast 131 151 5,000  Level Atlanta TRACON
05:46PM 32.4833 -84.9833 23° Northeast 125 144 5,000  Level Atlanta TRACON
05:47PM 32.5167 -84.9667 23° Northeast 143 165 5,000  Level Atlanta TRACON
05:48PM 32.5500 -84.9500 23° Northeast 138 159 5,000  Level Atlanta TRACON
05:49PM 32.5833 -84.9333 23° Northeast 125 144 5,000  Level Atlanta TRACON
05:50PM 32.6167 -84.9167 23° Northeast 130 150 5,000  Level Atlanta TRACON
05:51PM 32.6500 -84.9000 23° Northeast 132 152 5,000  Level Atlanta TRACON
05:52PM 32.6833 -84.8833 23° Northeast 133 153 5,000  Level Atlanta TRACON
05:53PM 32.7167 -84.8667 23° Northeast 132 152 5,000  Level Atlanta TRACON
05:54PM 32.7667 -84.8500 16° North 130 150 5,000  Level Atlanta TRACON
05:55PM 32.8000 -84.8333 23° Northeast 133 153 5,000  Level Atlanta TRACON
05:56PM 32.8167 -84.8167 40° Northeast 131 151 5,000  Level Atlanta TRACON
05:57PM 32.8667 -84.8000 16° North 135 155 5,000  Level Atlanta TRACON
05:58PM 32.9000 -84.7833 23° Northeast 133 153 5,000  Level Atlanta TRACON
05:59PM 32.9333 -84.7667 23° Northeast 132 152 5,000  Level Atlanta TRACON
06:00PM 32.9667 -84.7500 23° Northeast 132 152 5,000  Level Atlanta TRACON
06:01PM 33.0000 -84.7333 23° Northeast 132 152 5,000  Level Atlanta TRACON
06:02PM 33.0333 -84.7333 360° North 131 151 5,000  Level Atlanta TRACON
06:03PM 33.0667 -84.7167 23° Northeast 134 154 5,000 -180 Level Atlanta TRACON
06:04PM 33.1000 -84.6833 40° Northeast 139 160 4,700 -360 Descending Atlanta TRACON
06:05PM 33.1333 -84.6833 360° North 139 160 4,300 -480 Descending Atlanta TRACON
06:06PM 33.1667 -84.6667 23° Northeast 136 157 3,800 -540 Descending Atlanta TRACON
06:07PM 33.2000 -84.6500 23° Northeast 131 151 3,300 -420 Descending Atlanta TRACON
06:08PM 33.2333 -84.6333 23° Northeast 133 153 3,000 -420 Descending Atlanta TRACON
06:09PM 33.2667 -84.6167 23° Northeast 142 163 2,500 -540 Descending Atlanta TRACON
06:10PM 33.3000 -84.5833 40° Northeast 129 148 2,000 -240 Descending Atlanta TRACON
06:11PM 33.3167 -84.5500 59° Northeast 108 124 2,000 -120 Level Atlanta TRACON
06:12PM 33.3333 -84.5333 40° Northeast 137 158 1,800 -240 Descending Atlanta TRACON